Time;durP1;ratioP1;P1;durP2;ratioP2;P2;SDS_P1;SDS_P2;PMS_P1;PMS_P2;Temp;Humidity;BMP_temperature;BMP_pressure;BME280_temperature;BME280_humidity;BME280_pressure;Samples;Min_cycle;Max_cycle;Signal;HPM_P1;HPM_P2
2021/11/10 00:00:52;;;;;;;;;;;;;;;0.98;100.00;102352.41;2089911;28;19956;-69
2021/11/10 00:01:52;;;;;;;;;;;;;;;0.96;100.00;102344.66;2098157;28;19912;-69
2021/11/10 00:02:53;;;;;;;;;;;;;;;0.96;100.00;102349.81;2110024;28;19939;-69
2021/11/10 00:03:53;;;;;;;;;;;;;;;0.95;100.00;102354.91;2107252;28;19915;-69
2021/11/10 00:04:53;;;;;;;;;;;;;;;0.95;100.00;102348.09;2107180;28;19908;-69
2021/11/10 00:05:53;;;;;;;;;;;;;;;0.95;100.00;102342.94;2107112;28;20010;-69
2021/11/10 00:06:53;;;;;;;;;;;;;;;0.96;100.00;102344.66;2107172;28;19908;-71
2021/11/10 00:07:53;;;;;;;;;;;;;;;0.97;100.00;102343.84;2107191;28;20398;-70
2021/11/10 00:08:54;;;;;;;;;;;;;;;0.97;100.00;102340.41;2107147;28;20365;-69
2021/11/10 00:09:54;;;;;;;;;;;;;;;0.96;100.00;102339.53;2107079;28;19969;-69
2021/11/10 00:10:55;;;;;;;;;;;;;;;0.93;100.00;102339.50;2107107;28;19944;-69
2021/11/10 00:11:55;;;;;;;;;;;;;;;0.89;100.00;102347.97;2098046;28;19923;-69
2021/11/10 00:13:13;;;;;;;;;;;;;;;0.85;100.00;102341.00;2098246;28;19948;-69
2021/11/10 00:14:14;;;;;;;;;;;;;;;0.85;100.00;102347.00;2098181;28;20294;-69
2021/11/10 00:15:14;;;;;;;;;;;;;;;0.89;100.00;102347.97;2098114;28;19942;-69
2021/11/10 00:16:14;;;;;;;;;;;;;;;0.93;100.00;102341.19;2089941;28;19909;-69
2021/11/10 00:17:14;;;;;;;;;;;;;;;0.94;100.00;102336.06;2098137;28;20308;-69
2021/11/10 00:18:15;;;;;;;;;;;;;;;0.91;100.00;102336.00;2107070;28;19951;-69
2021/11/10 00:19:15;;;;;;;;;;;;;;;0.89;100.00;102335.13;2098092;28;19915;-69
2021/11/10 00:20:15;;;;;;;;;;;;;;;0.86;100.00;102342.75;2098179;28;19908;-69
2021/11/10 00:21:16;;;;;;;;;;;;;;;0.83;100.00;102338.41;2107024;28;19963;-69
2021/11/10 00:22:16;;;;;;;;;;;;;;;0.85;100.00;102341.00;2107034;28;20370;-69
2021/11/10 00:23:16;;;;;;;;;;;;;;;0.86;100.00;102342.75;2106970;28;19908;-70
2021/11/10 00:24:17;;;;;;;;;;;;;;;0.85;100.00;102343.56;2107157;28;19958;-69
2021/11/10 00:25:17;;;;;;;;;;;;;;;0.82;100.00;102335.81;2107118;28;20009;-69
2021/11/10 00:26:18;;;;;;;;;;;;;;;0.83;100.00;102338.41;2107101;28;19973;-70
2021/11/10 00:27:19;;;;;;;;;;;;;;;0.84;100.00;102328.97;2098099;28;19908;-69
2021/11/10 00:28:19;;;;;;;;;;;;;;;0.86;100.00;102342.75;2098191;28;20355;-69
2021/11/10 00:29:19;;;;;;;;;;;;;;;0.87;100.00;102336.75;2098213;28;19909;-69
2021/11/10 00:30:19;;;;;;;;;;;;;;;0.87;100.00;102331.63;2098102;28;20266;-70
2021/11/10 00:31:20;;;;;;;;;;;;;;;0.83;100.00;102324.69;2106956;28;19912;-70
2021/11/10 00:32:20;;;;;;;;;;;;;;;0.80;100.00;102327.19;2107086;28;19908;-69
2021/11/10 00:33:20;;;;;;;;;;;;;;;0.82;100.00;102330.66;2098095;28;19981;-69
2021/11/10 00:34:21;;;;;;;;;;;;;;;0.84;100.00;102328.97;2098040;28;19912;-70
2021/11/10 00:35:21;;;;;;;;;;;;;;;0.90;100.00;102334.28;2107081;28;19919;-70
2021/11/10 00:36:21;;;;;;;;;;;;;;;0.93;100.00;102329.19;2098080;28;19912;-69
2021/11/10 00:37:21;;;;;;;;;;;;;;;0.93;100.00;102324.06;2098153;28;19918;-69
2021/11/10 00:38:22;;;;;;;;;;;;;;;0.87;100.00;102327.38;2108308;28;20041;-70
2021/11/10 00:39:22;;;;;;;;;;;;;;;0.83;100.00;102333.28;2099686;28;19912;-69
2021/11/10 00:40:22;;;;;;;;;;;;;;;0.82;100.00;102326.38;2099693;28;20007;-69
2021/11/10 00:41:23;;;;;;;;;;;;;;;0.82;100.00;102322.94;2099606;28;19970;-70
2021/11/10 00:42:23;;;;;;;;;;;;;;;0.83;100.00;102322.13;2099738;28;19916;-70
2021/11/10 00:43:23;;;;;;;;;;;;;;;0.84;100.00;102323.84;2108523;28;19919;-69
2021/11/10 00:44:23;;;;;;;;;;;;;;;0.80;100.00;102316.91;2108699;28;19912;-68
2021/11/10 00:45:23;;;;;;;;;;;;;;;0.75;100.00;102315.09;2108627;28;20013;-70
2021/11/10 00:46:23;;;;;;;;;;;;;;;0.80;100.00;102311.75;2108610;28;19912;-69
2021/11/10 00:47:24;;;;;;;;;;;;;;;0.81;100.00;102313.47;2108638;28;20396;-69
2021/11/10 00:48:24;;;;;;;;;;;;;;;0.81;100.00;102303.19;2099577;28;19947;-70
2021/11/10 00:49:24;;;;;;;;;;;;;;;0.76;100.00;102301.41;2099688;28;19915;-69
2021/11/10 00:50:24;;;;;;;;;;;;;;;0.75;100.00;102294.53;2108553;28;19907;-72
2021/11/10 00:51:25;;;;;;;;;;;;;;;0.76;100.00;102292.84;2108626;28;19912;-71
2021/11/10 00:52:25;;;;;;;;;;;;;;;0.75;100.00;102291.09;2108725;28;19973;-73
2021/11/10 00:53:25;;;;;;;;;;;;;;;0.73;100.00;102290.19;2108629;28;19958;-70
2021/11/10 00:54:26;;;;;;;;;;;;;;;0.70;100.00;102285.88;2108616;28;20289;-71
2021/11/10 00:55:26;;;;;;;;;;;;;;;0.70;100.00;102277.28;2108591;28;19912;-68
2021/11/10 00:56:26;;;;;;;;;;;;;;;0.71;100.00;102277.31;2099659;28;19909;-70
2021/11/10 00:57:26;;;;;;;;;;;;;;;0.71;100.00;102272.19;2091311;28;20365;-70
2021/11/10 00:58:26;;;;;;;;;;;;;;;0.71;100.00;102276.44;2099466;28;19912;-68
2021/11/10 00:59:27;;;;;;;;;;;;;;;0.74;100.00;102281.66;2099509;28;19955;-71
2021/11/10 01:00:27;;;;;;;;;;;;;;;0.80;100.00;102286.06;2099532;28;19912;-70
2021/11/10 01:01:27;;;;;;;;;;;;;;;0.81;100.00;102285.22;2099589;28;19913;-69
2021/11/10 01:02:28;;;;;;;;;;;;;;;0.80;100.00;102280.91;2108547;28;19965;-70
2021/11/10 01:03:28;;;;;;;;;;;;;;;0.79;100.00;102279.19;2099515;28;19920;-70
2021/11/10 01:04:28;;;;;;;;;;;;;;;0.76;100.00;102280.84;2099553;28;20337;-70
2021/11/10 01:05:28;;;;;;;;;;;;;;;0.74;100.00;102272.25;2108480;28;19908;-69
2021/11/10 01:06:31;;;;;;;;;;;;;;;0.73;100.00;102278.22;2108544;28;19914;-70
2021/11/10 01:07:32;;;;;;;;;;;;;;;0.75;100.00;102283.38;2108567;28;19912;-70
2021/11/10 01:08:32;;;;;;;;;;;;;;;0.75;100.00;102279.13;2108588;28;19908;-71
2021/11/10 01:09:39;;;;;;;;;;;;;;;0.80;100.00;102281.78;2108474;28;19908;-71
2021/11/10 01:10:40;;;;;;;;;;;;;;;0.79;100.00;102281.75;2108381;28;19911;-69
2021/11/10 01:11:41;;;;;;;;;;;;;;;0.72;100.00;102279.03;2108381;28;19916;-69
2021/11/10 01:12:42;;;;;;;;;;;;;;;0.68;100.00;102272.09;2108432;28;19916;-69
2021/11/10 01:13:42;;;;;;;;;;;;;;;0.66;100.00;102276.34;2108479;28;20357;-70
2021/11/10 01:14:42;;;;;;;;;;;;;;;0.65;100.00;102277.16;2108432;28;19908;-70
2021/11/10 01:15:43;;;;;;;;;;;;;;;0.65;100.00;102277.16;2108396;28;20375;-70
2021/11/10 01:16:44;;;;;;;;;;;;;;;0.67;100.00;102283.22;2099318;28;20426;-69
2021/11/10 01:17:44;;;;;;;;;;;;;;;0.73;100.00;102283.38;2099438;28;19908;-69
2021/11/10 01:18:44;;;;;;;;;;;;;;;0.76;100.00;102285.97;2099283;28;19912;-69
2021/11/10 01:19:45;;;;;;;;;;;;;;;0.77;100.00;102285.16;2099386;28;19912;-70
2021/11/10 01:20:45;;;;;;;;;;;;;;;0.76;100.00;102285.97;2099355;28;19912;-70
2021/11/10 01:21:45;;;;;;;;;;;;;;;0.74;100.00;102284.22;2099373;28;20409;-70
2021/11/10 01:22:46;;;;;;;;;;;;;;;0.70;100.00;102279.84;2108252;28;20418;-69
2021/11/10 01:23:46;;;;;;;;;;;;;;;0.64;100.00;102285.72;2108247;28;19917;-70
2021/11/10 01:24:46;;;;;;;;;;;;;;;0.60;100.00;102278.78;2099307;28;19909;-69
2021/11/10 01:25:47;;;;;;;;;;;;;;;0.59;100.00;102285.63;2099379;28;20432;-69
2021/11/10 01:26:47;;;;;;;;;;;;;;;0.60;100.00;102279.66;2108275;28;20289;-71
2021/11/10 01:27:47;;;;;;;;;;;;;;;0.61;100.00;102283.94;2099290;28;20305;-70
2021/11/10 01:28:47;;;;;;;;;;;;;;;0.62;100.00;102282.25;2099377;28;19962;-69
2021/11/10 01:29:48;;;;;;;;;;;;;;;0.58;100.00;102280.47;2108289;28;19912;-69
2021/11/10 01:30:48;;;;;;;;;;;;;;;0.56;100.00;102284.69;2099241;28;20003;-68
2021/11/10 01:31:48;;;;;;;;;;;;;;;0.55;100.00;102285.53;2099236;28;19923;-69
2021/11/10 01:32:49;;;;;;;;;;;;;;;0.56;100.00;102287.25;2099251;28;20397;-70
2021/11/10 01:33:49;;;;;;;;;;;;;;;0.57;100.00;102288.97;2099316;28;19908;-70
2021/11/10 01:34:50;;;;;;;;;;;;;;;0.59;100.00;102287.31;2108233;28;19912;-70
2021/11/10 01:35:50;;;;;;;;;;;;;;;0.58;100.00;102285.59;2108314;28;19908;-69
2021/11/10 01:36:50;;;;;;;;;;;;;;;0.55;100.00;102280.38;2108304;28;19915;-69
2021/11/10 01:37:50;;;;;;;;;;;;;;;0.50;100.00;102281.16;2099181;28;20443;-70
2021/11/10 01:38:50;;;;;;;;;;;;;;;0.49;100.00;102279.41;2090906;28;19909;-69
2021/11/10 01:39:51;;;;;;;;;;;;;;;0.47;100.00;102270.78;2099264;28;19920;-69
2021/11/10 01:40:52;;;;;;;;;;;;;;;0.44;100.00;102270.72;2111039;28;19911;-71
2021/11/10 01:41:55;;;;;;;;;;;;;;;0.48;100.00;102269.09;2099238;28;19999;-69
2021/11/10 01:43:05;;;;;;;;;;;;;;;0.50;100.00;102273.44;2099603;28;19915;-69
2021/11/10 01:44:12;;;;;;;;;;;;;;;0.49;100.00;102275.97;2108185;28;19915;-70
2021/11/10 01:45:14;;;;;;;;;;;;;;;0.47;100.00;102268.22;2108208;28;20377;-70
2021/11/10 01:46:14;;;;;;;;;;;;;;;0.46;100.00;102271.63;2108225;28;19915;-70
2021/11/10 01:47:14;;;;;;;;;;;;;;;0.41;100.00;102267.22;2108090;28;19918;-70
2021/11/10 01:48:15;;;;;;;;;;;;;;;0.39;100.00;102272.31;2099149;28;19916;-69
2021/11/10 01:49:15;;;;;;;;;;;;;;;0.39;100.00;102274.88;2098527;28;19966;-71
2021/11/10 01:50:17;;;;;;;;;;;;;;;0.41;100.00;102273.22;2107654;28;19908;-70
2021/11/10 01:51:17;;;;;;;;;;;;;;;0.42;100.00;102269.84;2099041;28;19908;-70
2021/11/10 01:52:17;;;;;;;;;;;;;;;0.42;100.00;102267.25;2099200;28;20281;-70
2021/11/10 01:53:17;;;;;;;;;;;;;;;0.39;100.00;102264.63;2099101;28;19958;-70
2021/11/10 01:54:19;;;;;;;;;;;;;;;0.37;100.00;102250.84;2099194;28;19951;-69
2021/11/10 01:55:20;;;;;;;;;;;;;;;0.34;100.00;102256.78;2108162;28;19908;-70
2021/11/10 01:56:20;;;;;;;;;;;;;;;0.33;100.00;102252.50;2108123;28;19908;-69
2021/11/10 01:57:20;;;;;;;;;;;;;;;0.33;100.00;102254.19;2099064;28;19915;-69
2021/11/10 01:58:20;;;;;;;;;;;;;;;0.36;100.00;102254.25;2090806;28;19935;-69
2021/11/10 01:59:27;;;;;;;;;;;;;;;0.35;100.00;102255.97;2099066;28;19913;-68
2021/11/10 02:00:29;;;;;;;;;;;;;;;0.36;100.00;102254.25;2098960;28;19945;-70
2021/11/10 02:01:29;;;;;;;;;;;;;;;0.41;100.00;102252.66;2099495;28;19954;-69
2021/11/10 02:02:30;;;;;;;;;;;;;;;0.47;100.00;102263.09;2098989;28;19912;-68
2021/11/10 02:03:30;;;;;;;;;;;;;;;0.47;100.00;102263.09;2099107;28;20379;-69
2021/11/10 02:04:32;;;;;;;;;;;;;;;0.45;100.00;102254.47;2098990;28;19912;-69
2021/11/10 02:05:33;;;;;;;;;;;;;;;0.40;100.00;102253.50;2098989;28;19912;-70
2021/11/10 02:06:33;;;;;;;;;;;;;;;0.38;100.00;102266.31;2099104;28;20255;-69
2021/11/10 02:07:34;;;;;;;;;;;;;;;0.35;100.00;102262.81;2098941;28;19912;-69
2021/11/10 02:08:34;;;;;;;;;;;;;;;0.33;100.00;102259.31;2099088;28;19908;-68
2021/11/10 02:09:35;;;;;;;;;;;;;;;0.31;100.00;102268.72;2107993;28;19908;-69
2021/11/10 02:10:35;;;;;;;;;;;;;;;0.29;100.00;102270.34;2107944;28;19908;-71
2021/11/10 02:11:35;;;;;;;;;;;;;;;0.30;100.00;102272.13;2107861;28;19912;-69
2021/11/10 02:12:36;;;;;;;;;;;;;;;0.29;100.00;102270.34;2108006;28;19915;-70
2021/11/10 02:13:37;;;;;;;;;;;;;;;0.25;100.00;102261.72;2107972;28;19968;-69
2021/11/10 02:14:38;;;;;;;;;;;;;;;0.24;100.00;102260.84;2098848;28;19908;-69
2021/11/10 02:15:38;;;;;;;;;;;;;;;0.27;100.00;102254.91;2098984;28;19915;-69
2021/11/10 02:16:39;;;;;;;;;;;;;;;0.27;100.00;102254.06;2107935;28;19914;-70
2021/11/10 02:17:39;;;;;;;;;;;;;;;0.25;100.00;102257.44;2107918;28;19908;-69
2021/11/10 02:18:39;;;;;;;;;;;;;;;0.23;100.00;102254.00;2107940;28;19912;-69
2021/11/10 02:19:40;;;;;;;;;;;;;;;0.25;100.00;102256.59;2107870;28;20284;-69
2021/11/10 02:20:40;;;;;;;;;;;;;;;0.25;100.00;102252.31;2107951;28;19933;-68
2021/11/10 02:21:49;;;;;;;;;;;;;;;0.26;100.00;102258.31;2098849;28;19962;-68
2021/11/10 02:22:52;;;;;;;;;;;;;;;0.22;100.00;102249.69;2100271;28;19908;-70
2021/11/10 02:23:52;;;;;;;;;;;;;;;0.19;100.00;102241.91;2107725;28;19919;-68
2021/11/10 02:24:53;;;;;;;;;;;;;;;0.18;100.00;102254.72;2107857;28;19912;-68
2021/11/10 02:25:58;;;;;;;;;;;;;;;0.19;100.00;102252.19;2107837;28;20269;-69
2021/11/10 02:26:59;;;;;;;;;;;;;;;0.17;100.00;102253.81;2107937;28;19908;-68
2021/11/10 02:28:00;;;;;;;;;;;;;;;0.18;100.00;102255.59;2107847;28;19908;-68
2021/11/10 02:29:00;;;;;;;;;;;;;;;0.23;100.00;102248.84;2107976;28;19908;-69
2021/11/10 02:30:11;;;;;;;;;;;;;;;0.27;100.00;102248.94;2107860;28;19908;-69
2021/11/10 02:31:11;;;;;;;;;;;;;;;0.30;100.00;102249.00;2107738;28;19912;-69
2021/11/10 02:32:12;;;;;;;;;;;;;;;0.32;100.00;102249.88;2107832;28;19957;-70
2021/11/10 02:33:14;;;;;;;;;;;;;;;0.33;100.00;102244.78;2107824;28;20391;-69
2021/11/10 02:34:14;;;;;;;;;;;;;;;0.29;100.00;102247.25;2107869;28;19919;-70
2021/11/10 02:35:19;;;;;;;;;;;;;;;0.22;100.00;102243.69;2107719;28;20022;-70
2021/11/10 02:36:19;;;;;;;;;;;;;;;0.21;100.00;102249.66;2110619;28;19908;-70
2021/11/10 02:37:20;;;;;;;;;;;;;;;0.19;100.00;102251.31;2107794;28;20262;-70
2021/11/10 02:38:20;;;;;;;;;;;;;;;0.15;100.00;102250.38;2107825;28;19915;-70
2021/11/10 02:39:22;;;;;;;;;;;;;;;0.14;100.00;102250.34;2107834;28;19908;-69
2021/11/10 02:40:23;;;;;;;;;;;;;;;0.15;100.00;102250.38;2107825;28;19916;-70
2021/11/10 02:41:23;;;;;;;;;;;;;;;0.17;100.00;102251.25;2107736;28;19912;-69
2021/11/10 02:42:23;;;;;;;;;;;;;;;0.18;100.00;102253.03;2098702;28;19947;-69
2021/11/10 02:43:24;;;;;;;;;;;;;;;0.16;100.00;102252.09;2098770;28;20351;-69
2021/11/10 02:44:24;;;;;;;;;;;;;;;0.16;100.00;102251.22;2107660;28;19908;-70
2021/11/10 02:45:25;;;;;;;;;;;;;;;0.18;100.00;102255.59;2107630;28;19908;-70
2021/11/10 02:46:25;;;;;;;;;;;;;;;0.18;100.00;102247.88;2110526;28;19956;-69
2021/11/10 02:47:26;;;;;;;;;;;;;;;0.21;100.00;102254.78;2107622;28;19912;-70
2021/11/10 02:48:26;;;;;;;;;;;;;;;0.20;100.00;102246.19;2107633;28;19918;-70
2021/11/10 02:49:26;;;;;;;;;;;;;;;0.19;100.00;102244.47;2098711;28;19920;-70
2021/11/10 02:50:28;;;;;;;;;;;;;;;0.23;100.00;102242.84;2090384;28;19908;-70
2021/11/10 02:51:28;;;;;;;;;;;;;;;0.25;100.00;102238.63;2098561;28;20284;-70
2021/11/10 02:52:28;;;;;;;;;;;;;;;0.21;100.00;102236.81;2098757;28;19955;-70
2021/11/10 02:53:33;;;;;;;;;;;;;;;0.15;100.00;102234.97;2107657;28;20016;-70
2021/11/10 02:54:35;;;;;;;;;;;;;;;0.10;100.00;102239.13;2107706;28;19961;-70
2021/11/10 02:55:35;;;;;;;;;;;;;;;0.09;100.00;102242.50;2107617;28;20407;-69
2021/11/10 02:56:35;;;;;;;;;;;;;;;0.10;100.00;102242.56;2107648;28;19912;-70
2021/11/10 02:57:36;;;;;;;;;;;;;;;0.19;100.00;102248.72;2107661;28;20384;-69
2021/11/10 02:58:37;;;;;;;;;;;;;;;0.21;100.00;102252.22;2107619;28;19918;-69
2021/11/10 02:59:37;;;;;;;;;;;;;;;0.22;100.00;102241.09;2107554;28;19970;-69
2021/11/10 03:00:37;;;;;;;;;;;;;;;0.18;100.00;102242.75;2107253;28;20299;-69
2021/11/10 03:01:38;;;;;;;;;;;;;;;0.12;100.00;102240.03;2110349;28;19950;-70
2021/11/10 03:02:38;;;;;;;;;;;;;;;0.10;100.00;102236.56;2107595;28;19908;-69
2021/11/10 03:03:38;;;;;;;;;;;;;;;0.08;100.00;102233.09;2107546;28;19915;-69
2021/11/10 03:04:44;;;;;;;;;;;;;;;0.06;100.00;102232.16;2107630;28;19915;-69
2021/11/10 03:05:45;;;;;;;;;;;;;;;0.05;100.00;102233.88;2098492;28;19912;-69
2021/11/10 03:06:46;;;;;;;;;;;;;;;0.03;100.00;102239.81;2101429;28;19959;-68
2021/11/10 03:07:46;;;;;;;;;;;;;;;0.02;100.00;102233.81;2107556;28;19912;-69
2021/11/10 03:08:46;;;;;;;;;;;;;;;0.02;100.00;102238.06;2098431;28;19912;-69
2021/11/10 03:09:47;;;;;;;;;;;;;;;0.01;100.00;102231.19;2098615;28;19944;-70
2021/11/10 03:10:47;;;;;;;;;;;;;;;0.02;100.00;102230.34;2107480;28;19908;-69
2021/11/10 03:11:48;;;;;;;;;;;;;;;0.03;100.00;102229.56;2107341;28;20046;-69
2021/11/10 03:12:48;;;;;;;;;;;;;;;0.03;100.00;102232.13;2098443;28;20432;-70
2021/11/10 03:13:49;;;;;;;;;;;;;;;0.01;100.00;102236.34;2098503;28;19908;-69
2021/11/10 03:14:49;;;;;;;;;;;;;;;-0.01;100.00;102234.59;2107487;28;19908;-70
2021/11/10 03:15:49;;;;;;;;;;;;;;;-0.01;100.00;102234.59;2107463;28;19908;-69
2021/11/10 03:16:50;;;;;;;;;;;;;;;-0.01;100.00;102237.16;2107463;28;19908;-70
2021/11/10 03:17:50;;;;;;;;;;;;;;;-0.04;100.00;102234.53;2107483;28;19908;-68
2021/11/10 03:18:50;;;;;;;;;;;;;;;-0.06;100.00;102236.19;2098389;28;19916;-70
2021/11/10 03:19:50;;;;;;;;;;;;;;;-0.04;100.00;102238.78;2098372;28;19974;-69
2021/11/10 03:20:51;;;;;;;;;;;;;;;-0.04;100.00;102231.94;2098546;28;19913;-70
2021/11/10 03:21:51;;;;;;;;;;;;;;;-0.02;100.00;102243.16;2107339;28;19919;-70
2021/11/10 03:22:51;;;;;;;;;;;;;;;-0.01;100.00;102244.88;2107431;28;19918;-70
2021/11/10 03:23:52;;;;;;;;;;;;;;;-0.02;100.00;102248.28;2107325;28;19937;-70
2021/11/10 03:24:52;;;;;;;;;;;;;;;-0.01;100.00;102250.00;2107336;28;19919;-70
2021/11/10 03:25:52;;;;;;;;;;;;;;;0.04;100.00;102249.25;2107394;28;20399;-69
2021/11/10 03:26:53;;;;;;;;;;;;;;;0.04;100.00;102246.69;2107407;28;20361;-69
2021/11/10 03:27:54;;;;;;;;;;;;;;;0.03;100.00;102252.66;2107407;28;19916;-69
2021/11/10 03:28:54;;;;;;;;;;;;;;;0.02;100.00;102250.88;2107406;28;19912;-69
2021/11/10 03:29:55;;;;;;;;;;;;;;;-0.03;100.00;102251.66;2107400;28;19915;-69
2021/11/10 03:30:55;;;;;;;;;;;;;;;-0.07;100.00;102251.56;2107392;28;19908;-69
2021/11/10 03:31:55;;;;;;;;;;;;;;;-0.10;100.00;102254.88;2107259;28;19934;-70
2021/11/10 03:32:55;;;;;;;;;;;;;;;-0.09;100.00;102255.78;2107447;28;19912;-70
2021/11/10 03:33:55;;;;;;;;;;;;;;;-0.04;100.00;102254.19;2107353;28;19916;-69
2021/11/10 03:34:56;;;;;;;;;;;;;;;-0.01;100.00;102252.56;2107377;28;19919;-69
2021/11/10 03:35:56;;;;;;;;;;;;;;;0.05;100.00;102256.09;2098344;28;20331;-69
2021/11/10 03:36:57;;;;;;;;;;;;;;;0.09;100.00;102257.91;2098320;28;20369;-69
2021/11/10 03:37:57;;;;;;;;;;;;;;;0.11;100.00;102261.41;2107253;28;20440;-69
2021/11/10 03:38:57;;;;;;;;;;;;;;;0.13;100.00;102262.28;2107275;28;19958;-69
2021/11/10 03:39:58;;;;;;;;;;;;;;;0.13;100.00;102257.16;2107265;28;20008;-68
2021/11/10 03:40:58;;;;;;;;;;;;;;;0.13;100.00;102262.28;2107319;28;19958;-68
2021/11/10 03:41:58;;;;;;;;;;;;;;;0.16;100.00;102257.25;2107292;28;20428;-69
2021/11/10 03:42:58;;;;;;;;;;;;;;;0.19;100.00;102262.44;2107306;28;19911;-69
2021/11/10 03:43:58;;;;;;;;;;;;;;;0.16;100.00;102259.81;2098328;28;19908;-69
2021/11/10 03:44:59;;;;;;;;;;;;;;;0.11;100.00;102262.25;2098327;28;20434;-69
2021/11/10 03:45:59;;;;;;;;;;;;;;;0.06;100.00;102261.28;2107298;28;19908;-69
2021/11/10 03:47:00;;;;;;;;;;;;;;;0.01;100.00;102267.13;2098282;28;19919;-69
2021/11/10 03:48:00;;;;;;;;;;;;;;;0.01;100.00;102267.13;2098348;28;19952;-69
2021/11/10 03:49:00;;;;;;;;;;;;;;;0.05;100.00;102269.81;2098273;28;19912;-68
2021/11/10 03:50:00;;;;;;;;;;;;;;;0.09;100.00;102278.47;2107239;28;19912;-70
2021/11/10 03:51:01;;;;;;;;;;;;;;;0.15;100.00;102285.44;2107332;28;19967;-69
2021/11/10 03:52:01;;;;;;;;;;;;;;;0.18;100.00;102283.84;2107319;28;20454;-68
2021/11/10 03:53:01;;;;;;;;;;;;;;;0.25;100.00;102278.00;2107431;28;19952;-69
2021/11/10 03:54:01;;;;;;;;;;;;;;;0.28;100.00;102278.91;2107353;28;19965;-69
2021/11/10 03:55:02;;;;;;;;;;;;;;;0.35;100.00;102273.09;2107279;28;19927;-69
2021/11/10 03:56:03;;;;;;;;;;;;;;;0.41;100.00;102268.06;2098299;28;19908;-68
2021/11/10 03:57:03;;;;;;;;;;;;;;;0.40;100.00;102263.78;2098299;28;19913;-69
2021/11/10 03:58:04;;;;;;;;;;;;;;;0.42;100.00;102268.94;2107154;28;19908;-69
2021/11/10 03:59:04;;;;;;;;;;;;;;;0.46;100.00;102266.50;2107174;28;19908;-69
2021/11/10 04:00:05;;;;;;;;;;;;;;;0.45;100.00;102269.88;2109922;28;20428;-69
2021/11/10 04:01:06;;;;;;;;;;;;;;;0.43;100.00;102266.41;2107095;28;19922;-70
2021/11/10 04:02:07;;;;;;;;;;;;;;;0.42;100.00;102274.97;2107179;28;19908;-70
2021/11/10 04:03:07;;;;;;;;;;;;;;;0.39;100.00;102280.03;2107133;28;20010;-69
2021/11/10 04:04:08;;;;;;;;;;;;;;;0.33;100.00;102275.63;2107156;28;19912;-69
2021/11/10 04:05:08;;;;;;;;;;;;;;;0.29;100.00;102268.66;2098280;28;20345;-69
2021/11/10 04:06:10;;;;;;;;;;;;;;;0.32;100.00;102267.88;2089844;28;19916;-68
2021/11/10 04:07:10;;;;;;;;;;;;;;;0.34;100.00;102269.63;2089938;28;19951;-69
2021/11/10 04:08:10;;;;;;;;;;;;;;;0.36;100.00;102264.53;2089903;28;20292;-69
2021/11/10 04:09:10;;;;;;;;;;;;;;;0.37;100.00;102268.84;2098079;28;19908;-69
2021/11/10 04:10:11;;;;;;;;;;;;;;;0.36;100.00;102274.81;2098218;28;20393;-69
2021/11/10 04:11:12;;;;;;;;;;;;;;;0.37;100.00;102273.97;2107137;28;19911;-69
2021/11/10 04:12:12;;;;;;;;;;;;;;;0.37;100.00;102276.53;2107172;28;19918;-69
2021/11/10 04:13:12;;;;;;;;;;;;;;;0.38;100.00;102275.72;2108123;28;19916;-70
2021/11/10 04:14:12;;;;;;;;;;;;;;;0.34;100.00;102276.50;2108949;28;19908;-69
2021/11/10 04:15:13;;;;;;;;;;;;;;;0.35;100.00;102279.06;2108905;28;20261;-69
2021/11/10 04:16:13;;;;;;;;;;;;;;;0.35;100.00;102278.22;2108964;28;19935;-70
2021/11/10 04:17:13;;;;;;;;;;;;;;;0.34;100.00;102272.22;2108878;28;20297;-70
2021/11/10 04:18:15;;;;;;;;;;;;;;;0.28;100.00;102276.34;2108836;28;19915;-70
2021/11/10 04:19:15;;;;;;;;;;;;;;;0.25;100.00;102278.00;2108857;28;19912;-70
2021/11/10 04:20:15;;;;;;;;;;;;;;;0.23;100.00;102274.53;2108871;28;19911;-70
2021/11/10 04:21:17;;;;;;;;;;;;;;;0.21;100.00;102281.31;2108988;28;19919;-70
2021/11/10 04:22:20;;;;;;;;;;;;;;;0.24;100.00;102286.53;2108902;28;19957;-70
2021/11/10 04:23:20;;;;;;;;;;;;;;;0.23;100.00;102292.50;2099675;28;19908;-71
2021/11/10 04:24:20;;;;;;;;;;;;;;;0.19;100.00;102293.25;2099921;28;20282;-71
2021/11/10 04:25:20;;;;;;;;;;;;;;;0.21;100.00;102296.72;2108672;28;20003;-70
2021/11/10 04:26:22;;;;;;;;;;;;;;;0.24;100.00;102296.81;2099766;28;19916;-70
2021/11/10 04:27:22;;;;;;;;;;;;;;;0.21;100.00;102286.44;2102687;28;19996;-70
2021/11/10 04:28:22;;;;;;;;;;;;;;;0.25;100.00;102287.41;2108811;28;20293;-71
2021/11/10 04:29:23;;;;;;;;;;;;;;;0.30;100.00;102290.09;2099747;28;19948;-70
2021/11/10 04:30:23;;;;;;;;;;;;;;;0.29;100.00;102288.34;2099844;28;19908;-70
2021/11/10 04:31:23;;;;;;;;;;;;;;;0.27;100.00;102284.88;2108675;28;19965;-70
2021/11/10 04:32:24;;;;;;;;;;;;;;;0.31;100.00;102291.81;2108782;28;19915;-69
2021/11/10 04:33:24;;;;;;;;;;;;;;;0.32;100.00;102293.56;2108783;28;19937;-70
2021/11/10 04:34:24;;;;;;;;;;;;;;;0.35;100.00;102293.63;2099705;28;19912;-70
2021/11/10 04:35:24;;;;;;;;;;;;;;;0.40;100.00;102297.16;2099762;28;19912;-70
2021/11/10 04:36:28;;;;;;;;;;;;;;;0.46;100.00;102292.19;2099792;28;19958;-70
2021/11/10 04:37:28;;;;;;;;;;;;;;;0.49;100.00;102297.41;2102809;28;20405;-70
2021/11/10 04:38:28;;;;;;;;;;;;;;;0.51;100.00;102290.59;2099689;28;19908;-70
2021/11/10 04:39:28;;;;;;;;;;;;;;;0.55;100.00;102290.66;2099720;28;19932;-69
2021/11/10 04:40:28;;;;;;;;;;;;;;;0.55;100.00;102285.53;2108637;28;19923;-70
2021/11/10 04:41:29;;;;;;;;;;;;;;;0.54;100.00;102278.66;2108771;28;20364;-69
2021/11/10 04:42:29;;;;;;;;;;;;;;;0.51;100.00;102285.44;2099644;28;20010;-70
2021/11/10 04:43:29;;;;;;;;;;;;;;;0.49;100.00;102286.25;2099724;28;19969;-69
2021/11/10 04:44:29;;;;;;;;;;;;;;;0.51;100.00;102275.16;2108650;28;19915;-69
2021/11/10 04:45:33;;;;;;;;;;;;;;;0.51;100.00;102270.03;2108685;28;19908;-68
2021/11/10 04:46:34;;;;;;;;;;;;;;;0.51;100.00;102275.16;2108711;28;19908;-69
2021/11/10 04:47:35;;;;;;;;;;;;;;;0.51;100.00;102277.75;2108656;28;20070;-69
2021/11/10 04:48:39;;;;;;;;;;;;;;;0.50;100.00;102273.44;2108660;28;19912;-70
2021/11/10 04:49:39;;;;;;;;;;;;;;;0.50;100.00;102273.44;2099527;28;19912;-69
2021/11/10 04:50:43;;;;;;;;;;;;;;;0.53;100.00;102276.91;2099587;28;19912;-70
2021/11/10 04:51:44;;;;;;;;;;;;;;;0.55;100.00;102276.09;2100058;28;19921;-69
2021/11/10 04:52:44;;;;;;;;;;;;;;;0.60;100.00;102268.50;2108685;28;19933;-69
2021/11/10 04:53:48;;;;;;;;;;;;;;;0.61;100.00;102271.09;2108679;28;19940;-69
2021/11/10 04:54:49;;;;;;;;;;;;;;;0.60;100.00;102269.38;2108604;28;19914;-69
2021/11/10 04:55:49;;;;;;;;;;;;;;;0.56;100.00;102272.72;2099548;28;20285;-69
2021/11/10 04:56:49;;;;;;;;;;;;;;;0.53;100.00;102271.75;2091280;28;19943;-69
2021/11/10 04:57:49;;;;;;;;;;;;;;;0.52;100.00;102276.03;2099618;28;19986;-70
2021/11/10 04:58:50;;;;;;;;;;;;;;;0.52;100.00;102276.03;2108436;28;19968;-69
2021/11/10 04:59:50;;;;;;;;;;;;;;;0.53;100.00;102277.78;2099461;28;19908;-69
2021/11/10 05:00:50;;;;;;;;;;;;;;;0.51;100.00;102274.28;2099600;28;19908;-69
2021/11/10 05:02:03;;;;;;;;;;;;;;;0.52;100.00;102270.91;2099316;28;19908;-69
2021/11/10 05:03:03;;;;;;;;;;;;;;;0.58;100.00;102270.19;2101440;28;19912;-69
2021/11/10 05:04:05;;;;;;;;;;;;;;;0.65;100.00;102269.47;2099409;28;19912;-70
2021/11/10 05:05:05;;;;;;;;;;;;;;;0.62;100.00;102267.69;2099562;28;19916;-69
2021/11/10 05:06:05;;;;;;;;;;;;;;;0.65;100.00;102266.88;2108520;28;19912;-69
2021/11/10 05:07:06;;;;;;;;;;;;;;;0.65;100.00;102256.59;2108496;28;19916;-68
2021/11/10 05:08:07;;;;;;;;;;;;;;;0.64;100.00;102265.16;2108559;28;19908;-68
2021/11/10 05:09:07;;;;;;;;;;;;;;;0.64;100.00;102262.59;2108585;28;19908;-68
2021/11/10 05:10:07;;;;;;;;;;;;;;;0.62;100.00;102262.56;2108462;28;20305;-68
2021/11/10 05:11:08;;;;;;;;;;;;;;;0.60;100.00;102253.97;2108483;28;19915;-68
2021/11/10 05:12:08;;;;;;;;;;;;;;;0.58;100.00;102270.19;2108440;28;19916;-69